This is the latest recevied weather packets stored in our database for station/object NSFA. If no packets are shown the sender has not sent any weather packets the latest 1 day(s).
| Time | Temp. | Humidity | Pressure | Rain* | Wind** | Luminosity | Snow |
|---|---|---|---|---|---|---|---|
| 1778387628 | 30° C | 74% | 1010 hPa | - | - | - | - |
| 1778387026 | 30° C | 74% | 1010 hPa | - | - | - | - |
| 1778386430 | 30° C | 79% | 1010 hPa | - | - | - | - |
| 1778385827 | 30° C | 79% | 1010 hPa | - | - | - | - |
| 1778385226 | 30° C | 79% | 1010 hPa | - | - | - | - |
| 1778384630 | 30° C | 79% | 1010 hPa | - | - | - | - |
| 1778384031 | 30° C | 79% | 1010 hPa | - | - | - | - |
| 1778383426 | 30° C | 79% | 1010 hPa | - | - | - | - |
| 1778382830 | 28.89° C | 83% | 1010 hPa | - | - | - | - |
| 1778382232 | 28.89° C | 83% | 1010 hPa | - | - | - | - |
| 1778379825 | 28.89° C | 83% | 1010 hPa | - | - | - | - |
| 1778379227 | 30° C | 74% | 1010 hPa | - | - | - | - |
| 1778378628 | 30° C | 74% | 1010 hPa | - | - | - | - |
| 1778377425 | 30° C | 74% | 1010 hPa | - | - | - | - |
| 1778376829 | 30° C | 74% | 1010 hPa | - | - | - | - |
| 1778376227 | 30° C | 74% | 1010 hPa | - | - | - | - |
| 1778375627 | 30.56° C | 70% | 1011 hPa | - | - | - | - |
| 1778374430 | 30.56° C | 70% | 1011 hPa | - | - | - | - |
| 1778373829 | 30.56° C | 70% | 1011 hPa | - | - | - | - |
| 1778372628 | 30.56° C | 70% | 1011 hPa | - | - | - | - |
| 1778372030 | 30.56° C | 70% | 1011 hPa | - | - | - | - |
| 1778369634 | 31.67° C | 66% | 1012 hPa | - | - | - | - |
| 1778368433 | 30.56° C | 74% | 1012 hPa | - | - | - | - |
| 1778366039 | 30.56° C | 74% | 1012 hPa | - | - | - | - |
| 1778365433 | 30.56° C | 74% | 1012 hPa | - | - | - | - |
* Rain since midnight (hover to see other rain measurements)
** Current wind speed in m/s (hover to see current wind gust speed)